Time;durP1;ratioP1;P1;durP2;ratioP2;P2;SDS_P1;SDS_P2;PMS_P1;PMS_P2;Temp;Humidity;BMP_temperature;BMP_pressure;BME280_temperature;BME280_humidity;BME280_pressure;Samples;Min_cycle;Max_cycle;Signal;HPM_P1;HPM_P2
2023/10/16 00:01:15;;;;;;;0.20;0.20;;;;;;;;;;5079637;28;20040;-70
2023/10/16 00:03:41;;;;;;;0.10;0.10;;;;;;;;;;5096039;28;20356;-70
2023/10/16 00:06:07;;;;;;;0.10;0.10;;;;;;;;;;5096178;28;20028;-70
2023/10/16 00:08:34;;;;;;;0.10;0.10;;;;;;;;;;5096284;28;20384;-70
2023/10/16 00:11:03;;;;;;;0.20;0.20;;;;;;;;;;5095957;28;20069;-70
2023/10/16 00:13:29;;;;;;;0.10;0.10;;;;;;;;;;5095906;28;20032;-70
2023/10/16 00:15:56;;;;;;;0.20;0.20;;;;;;;;;;5077833;28;20139;-69
2023/10/16 00:18:23;;;;;;;0.10;0.10;;;;;;;;;;5095832;28;20403;-69
2023/10/16 00:20:49;;;;;;;12.80;11.98;;;;;;;;;;5095926;28;20110;-69
2023/10/16 00:23:15;;;;;;;0.10;0.10;;;;;;;;;;5066353;28;20021;-69
2023/10/16 00:25:41;;;;;;;0.10;0.10;;;;;;;;;;5075376;28;20044;-69
2023/10/16 00:28:07;;;;;;;0.10;0.10;;;;;;;;;;5075495;28;20044;-69
2023/10/16 00:30:33;;;;;;;0.10;0.10;;;;;;;;;;5057558;28;20044;-69
2023/10/16 00:32:59;;;;;;;0.20;0.20;;;;;;;;;;5075392;28;20461;-71
2023/10/16 00:35:24;;;;;;;0.15;0.15;;;;;;;;;;5075510;28;20056;-69
2023/10/16 00:37:50;;;;;;;0.20;0.20;;;;;;;;;;5057483;28;20045;-69
2023/10/16 00:40:31;;;;;;;0.20;0.20;;;;;;;;;;5075364;28;20028;-69
2023/10/16 00:43:06;;;;;;;0.10;0.10;;;;;;;;;;5057221;28;20031;-70
2023/10/16 00:45:47;;;;;;;0.10;0.10;;;;;;;;;;5057647;28;20036;-69
2023/10/16 00:48:16;;;;;;;0.20;0.20;;;;;;;;;;5075128;28;20036;-69
2023/10/16 00:50:43;;;;;;;0.10;0.10;;;;;;;;;;5075295;28;20029;-70
2023/10/16 00:53:09;;;;;;;0.10;0.10;;;;;;;;;;5075055;28;20468;-69
2023/10/16 00:55:34;;;;;;;0.15;0.15;;;;;;;;;;5075228;28;20058;-70
2023/10/16 00:58:00;;;;;;;0.20;0.20;;;;;;;;;;5057464;28;20365;-70
2023/10/16 01:00:27;;;;;;;0.10;0.10;;;;;;;;;;5075075;28;20119;-69
2023/10/16 01:02:52;;;;;;;0.20;0.20;;;;;;;;;;5057132;28;20110;-69
2023/10/16 01:05:23;;;;;;;0.20;0.20;;;;;;;;;;5074945;28;20488;-69
2023/10/16 01:07:49;;;;;;;0.10;0.10;;;;;;;;;;5074916;28;20078;-69
2023/10/16 01:10:17;;;;;;;0.10;0.10;;;;;;;;;;5056901;28;20086;-69
2023/10/16 01:12:54;;;;;;;0.20;0.20;;;;;;;;;;5074723;28;20472;-69
2023/10/16 01:15:21;;;;;;;0.10;0.10;;;;;;;;;;5075016;28;20044;-69
2023/10/16 01:17:48;;;;;;;0.20;0.20;;;;;;;;;;5074928;28;20030;-69
2023/10/16 01:20:18;;;;;;;0.10;0.10;;;;;;;;;;5056659;28;20503;-70
2023/10/16 01:22:52;;;;;;;0.15;0.15;;;;;;;;;;5056847;28;20033;-69
2023/10/16 01:25:18;;;;;;;0.10;0.10;;;;;;;;;;5074789;28;20037;-69
2023/10/16 01:27:44;;;;;;;0.10;0.10;;;;;;;;;;5074677;28;20048;-69
2023/10/16 01:30:10;;;;;;;0.10;0.10;;;;;;;;;;5056609;28;20037;-71
2023/10/16 01:32:38;;;;;;;0.10;0.10;;;;;;;;;;5056389;28;20029;-69
2023/10/16 01:35:08;;;;;;;0.10;0.10;;;;;;;;;;5056397;28;20037;-69
2023/10/16 01:37:34;;;;;;;0.10;0.10;;;;;;;;;;5056447;28;20139;-69
2023/10/16 01:40:21;;;;;;;0.20;0.20;;;;;;;;;;5056531;28;20388;-70
2023/10/16 01:42:46;;;;;;;0.10;0.10;;;;;;;;;;5055784;28;20062;-70
2023/10/16 01:45:14;;;;;;;0.20;0.20;;;;;;;;;;5074398;28;20032;-70
2023/10/16 01:47:39;;;;;;;0.20;0.20;;;;;;;;;;5056338;28;20377;-70
2023/10/16 01:50:06;;;;;;;0.10;0.10;;;;;;;;;;5074259;28;20025;-69
2023/10/16 01:52:34;;;;;;;0.10;0.10;;;;;;;;;;5074424;28;20102;-69
2023/10/16 01:54:59;;;;;;;0.10;0.10;;;;;;;;;;5073946;28;20086;-70
2023/10/16 01:57:25;;;;;;;0.10;0.10;;;;;;;;;;5056154;28;20029;-69
2023/10/16 01:59:51;;;;;;;0.10;0.10;;;;;;;;;;5069919;28;20127;-70
2023/10/16 02:02:17;;;;;;;0.10;0.10;;;;;;;;;;5076228;28;20119;-69
2023/10/16 02:04:43;;;;;;;0.10;0.10;;;;;;;;;;5094556;28;20036;-69
2023/10/16 02:07:09;;;;;;;0.13;0.13;;;;;;;;;;5076482;28;20027;-70
2023/10/16 02:09:38;;;;;;;0.15;0.15;;;;;;;;;;5094292;28;20020;-71
2023/10/16 02:12:16;;;;;;;0.20;0.20;;;;;;;;;;5075848;28;20474;-71
2023/10/16 02:14:42;;;;;;;0.20;0.20;;;;;;;;;;5075488;28;20068;-70
2023/10/16 02:17:14;;;;;;;0.15;0.15;;;;;;;;;;5075927;28;20063;-70
2023/10/16 02:19:45;;;;;;;0.10;0.10;;;;;;;;;;5094220;28;20062;-71
2023/10/16 02:22:16;;;;;;;0.10;0.10;;;;;;;;;;5093849;28;20040;-71
2023/10/16 02:24:41;;;;;;;0.10;0.10;;;;;;;;;;5094307;28;20391;-70
2023/10/16 02:27:12;;;;;;;0.20;0.20;;;;;;;;;;5093682;28;20039;-70
2023/10/16 02:29:39;;;;;;;0.20;0.20;;;;;;;;;;5093943;28;20043;-69
2023/10/16 02:32:05;;;;;;;0.10;0.10;;;;;;;;;;5075672;28;20067;-70
2023/10/16 02:34:33;;;;;;;0.20;0.20;;;;;;;;;;5093799;28;20464;-70
2023/10/16 02:37:00;;;;;;;0.10;0.10;;;;;;;;;;5093838;28;20036;-70
2023/10/16 02:39:35;;;;;;;0.20;0.20;;;;;;;;;;5093788;28;20063;-70
2023/10/16 02:42:02;;;;;;;0.20;0.20;;;;;;;;;;5075848;28;20031;-69
2023/10/16 02:44:29;;;;;;;0.20;0.20;;;;;;;;;;5093857;28;20027;-69
2023/10/16 02:46:56;;;;;;;0.10;0.10;;;;;;;;;;5075753;28;20028;-71
2023/10/16 02:49:22;;;;;;;0.20;0.20;;;;;;;;;;5093576;28;20028;-69
2023/10/16 02:51:47;;;;;;;0.10;0.10;;;;;;;;;;5093371;28;20433;-71
2023/10/16 02:54:13;;;;;;;0.10;0.10;;;;;;;;;;5092978;28;20700;-70
2023/10/16 02:56:42;;;;;;;0.10;0.10;;;;;;;;;;5091180;28;20356;-71
2023/10/16 02:59:08;;;;;;;0.17;0.17;;;;;;;;;;5091162;28;20030;-71
2023/10/16 03:01:34;;;;;;;0.10;0.10;;;;;;;;;;5091343;28;20036;-71
2023/10/16 03:04:00;;;;;;;0.20;0.20;;;;;;;;;;5068108;28;20050;-71
2023/10/16 03:06:30;;;;;;;0.10;0.10;;;;;;;;;;5087122;28;20112;-71
2023/10/16 03:09:14;;;;;;;0.10;0.10;;;;;;;;;;5087485;28;20119;-70
2023/10/16 03:11:39;;;;;;;0.10;0.10;;;;;;;;;;5070679;28;20036;-69
2023/10/16 03:14:10;;;;;;;0.10;0.10;;;;;;;;;;5089245;28;20024;-70
2023/10/16 03:16:36;;;;;;;0.10;0.10;;;;;;;;;;5054052;28;20028;-69
2023/10/16 03:19:09;;;;;;;0.10;0.10;;;;;;;;;;5070635;28;20047;-70
2023/10/16 03:21:35;;;;;;;0.17;0.17;;;;;;;;;;5089527;28;20053;-69
2023/10/16 03:24:00;;;;;;;0.20;0.20;;;;;;;;;;5089327;28;20032;-70
2023/10/16 03:26:30;;;;;;;0.20;0.20;;;;;;;;;;5087824;28;20093;-70
2023/10/16 03:29:00;;;;;;;0.20;0.20;;;;;;;;;;5089176;28;20127;-71
2023/10/16 03:31:28;;;;;;;0.20;0.20;;;;;;;;;;5070953;28;20491;-70
2023/10/16 03:33:56;;;;;;;0.20;0.20;;;;;;;;;;5070498;28;20089;-71
2023/10/16 03:36:22;;;;;;;0.20;0.20;;;;;;;;;;5089057;28;20032;-71
2023/10/16 03:38:51;;;;;;;0.10;0.10;;;;;;;;;;5088998;28;20547;-71
2023/10/16 03:43:56;;;;;;;0.10;0.10;;;;;;;;;;5089198;28;20036;-69
2023/10/16 03:46:23;;;;;;;0.10;0.10;;;;;;;;;;5088919;28;20039;-71
2023/10/16 03:48:49;;;;;;;0.20;0.20;;;;;;;;;;5088919;28;20035;-70
2023/10/16 03:51:16;;;;;;;0.13;0.13;;;;;;;;;;5088923;28;20112;-70
2023/10/16 03:53:44;;;;;;;0.15;0.15;;;;;;;;;;5088799;28;20148;-71
2023/10/16 03:56:11;;;;;;;0.10;0.10;;;;;;;;;;5070696;28;20373;-70
2023/10/16 03:58:41;;;;;;;0.10;0.10;;;;;;;;;;5088553;28;20040;-74
2023/10/16 04:01:10;;;;;;;0.13;0.13;;;;;;;;;;5070582;28;20039;-70
2023/10/16 04:03:57;;;;;;;0.10;0.10;;;;;;;;;;5088772;28;20157;-70
2023/10/16 04:06:22;;;;;;;0.20;0.20;;;;;;;;;;5087888;28;20060;-70
2023/10/16 04:08:53;;;;;;;0.10;0.10;;;;;;;;;;5070426;28;20114;-70
2023/10/16 04:11:19;;;;;;;0.10;0.10;;;;;;;;;;5088552;28;20115;-71
2023/10/16 04:13:47;;;;;;;0.10;0.10;;;;;;;;;;5088390;28;20040;-69
2023/10/16 04:19:35;;;;;;;0.10;0.10;;;;;;;;;;5088692;28;20067;-70
2023/10/16 04:22:09;;;;;;;0.10;0.10;;;;;;;;;;5087776;28;20079;-71
2023/10/16 04:24:46;;;;;;;0.10;0.10;;;;;;;;;;5070172;28;20039;-74
2023/10/16 04:29:49;;;;;;;0.20;0.20;;;;;;;;;;5088345;28;20494;-71
2023/10/16 04:35:29;;;;;;;0.10;0.10;;;;;;;;;;5088368;28;20032;-72
2023/10/16 04:37:55;;;;;;;0.10;0.10;;;;;;;;;;5089533;28;20481;-72
2023/10/16 04:43:37;;;;;;;0.17;0.17;;;;;;;;;;5091408;28;20032;-70
2023/10/16 04:46:20;;;;;;;0.13;0.13;;;;;;;;;;5090991;28;20074;-70
2023/10/16 04:48:51;;;;;;;0.10;0.10;;;;;;;;;;5091273;28;20028;-71
2023/10/16 04:51:17;;;;;;;0.20;0.20;;;;;;;;;;5073597;28;20036;-71
2023/10/16 04:53:59;;;;;;;0.20;0.20;;;;;;;;;;5089637;28;20040;-69
2023/10/16 04:59:37;;;;;;;0.10;0.10;;;;;;;;;;5091052;28;20024;-70
2023/10/16 05:02:11;;;;;;;0.22;0.22;;;;;;;;;;5075184;28;20062;-71
2023/10/16 05:07:37;;;;;;;0.10;0.10;;;;;;;;;;5070446;28;20051;-70
2023/10/16 05:10:17;;;;;;;0.20;0.20;;;;;;;;;;5069233;28;20029;-72
2023/10/16 05:15:41;;;;;;;0.20;0.20;;;;;;;;;;5079463;28;20099;-72
2023/10/16 05:18:20;;;;;;;0.20;0.20;;;;;;;;;;5068464;28;20036;-71
2023/10/16 06:15:42;;;;;;;0.10;0.10;;;;;;;;;;5072247;28;20139;-72
2023/10/16 06:18:07;;;;;;;0.20;0.20;;;;;;;;;;5090181;28;20107;-70
2023/10/16 06:20:37;;;;;;;0.20;0.20;;;;;;;;;;5071997;28;20050;-70
2023/10/16 06:23:04;;;;;;;0.10;0.10;;;;;;;;;;5089917;28;20421;-71
2023/10/16 06:25:33;;;;;;;0.10;0.10;;;;;;;;;;5089927;28;20081;-71
2023/10/16 06:27:59;;;;;;;;;;;;;;;;;;5090254;28;20395;-70
2023/10/16 06:30:25;;;;;;;0.20;0.20;;;;;;;;;;5089542;28;19912;-71
2023/10/16 06:32:52;;;;;;;0.10;0.10;;;;;;;;;;5089655;28;20058;-70
2023/10/16 06:35:18;;;;;;;0.15;0.15;;;;;;;;;;5090149;28;20039;-73
2023/10/16 06:37:53;;;;;;;0.20;0.20;;;;;;;;;;5072193;28;20038;-72
2023/10/16 06:40:24;;;;;;;0.20;0.20;;;;;;;;;;5089770;28;20042;-71
2023/10/16 06:42:54;;;;;;;0.15;0.15;;;;;;;;;;5071900;28;20383;-70
2023/10/16 06:45:21;;;;;;;0.20;0.20;;;;;;;;;;5071565;28;20036;-72
2023/10/16 06:47:47;;;;;;;0.10;0.10;;;;;;;;;;5089693;28;20034;-70
2023/10/16 06:52:48;;;;;;;0.20;0.20;;;;;;;;;;5089658;28;20047;-70
2023/10/16 06:55:14;;;;;;;0.10;0.10;;;;;;;;;;5089610;28;20024;-70
2023/10/16 06:57:39;;;;;;;2.38;2.28;;;;;;;;;;5089575;28;20099;-71
2023/10/16 07:00:21;;;;;;;0.13;0.13;;;;;;;;;;5089277;28;20032;-72
2023/10/16 07:02:47;;;;;;;0.20;0.20;;;;;;;;;;5089383;28;20028;-70
2023/10/16 07:05:14;;;;;;;0.30;0.30;;;;;;;;;;5089321;28;20032;-70
2023/10/16 07:07:39;;;;;;;0.10;0.10;;;;;;;;;;5089562;28;20102;-70
2023/10/16 07:10:13;;;;;;;0.10;0.10;;;;;;;;;;5089262;28;20118;-71
2023/10/16 07:12:56;;;;;;;0.10;0.10;;;;;;;;;;5070761;28;20487;-71
2023/10/16 07:15:25;;;;;;;0.20;0.20;;;;;;;;;;5087948;28;20089;-70
2023/10/16 07:17:55;;;;;;;0.10;0.10;;;;;;;;;;5065716;28;20391;-68
2023/10/16 07:20:30;;;;;;;1.30;1.30;;;;;;;;;;5088172;28;20046;-66
2023/10/16 07:22:59;;;;;;;0.45;0.45;;;;;;;;;;5054540;28;20098;-65
2023/10/16 07:28:12;;;;;;;0.20;0.20;;;;;;;;;;5088721;28;20768;-66
2023/10/16 07:30:42;;;;;;;0.13;0.13;;;;;;;;;;5064737;28;20036;-66
2023/10/16 07:33:14;;;;;;;0.15;0.15;;;;;;;;;;5053609;28;20040;-65
2023/10/16 07:35:49;;;;;;;0.20;0.20;;;;;;;;;;5079221;28;20503;-65
2023/10/16 07:38:19;;;;;;;0.20;0.20;;;;;;;;;;5051812;28;20447;-65
2023/10/16 07:40:55;;;;;;;0.20;0.20;;;;;;;;;;5050447;28;20032;-65
2023/10/16 07:43:27;;;;;;;0.10;0.10;;;;;;;;;;5061915;28;20020;-65
2023/10/16 07:46:16;;;;;;;0.20;0.20;;;;;;;;;;5065619;28;20059;-66
2023/10/16 07:48:40;;;;;;;3.42;1.13;;;;;;;;;;5059345;28;20025;-66
2023/10/16 07:51:09;;;;;;;1.08;0.60;;;;;;;;;;5060815;28;20039;-67
2023/10/16 07:53:35;;;;;;;0.28;0.28;;;;;;;;;;5064663;28;20089;-65
2023/10/16 07:56:17;;;;;;;0.20;0.20;;;;;;;;;;5079791;28;20043;-66
2023/10/16 07:58:48;;;;;;;0.35;0.35;;;;;;;;;;5033785;28;20571;-71
2023/10/16 08:01:32;;;;;;;0.22;0.22;;;;;;;;;;5052794;28;20040;-67
2023/10/16 08:04:01;;;;;;;6.22;2.33;;;;;;;;;;5083874;28;20032;-65
2023/10/16 08:06:28;;;;;;;1.27;0.70;;;;;;;;;;5068922;28;20396;-65
2023/10/16 08:11:44;;;;;;;4.43;1.63;;;;;;;;;;5066187;28;20044;-65
2023/10/16 08:14:10;;;;;;;1.75;0.75;;;;;;;;;;5056771;28;20613;-66
2023/10/16 08:16:38;;;;;;;4.43;1.38;;;;;;;;;;5091606;28;20040;-70
2023/10/16 08:19:14;;;;;;;5.97;1.63;;;;;;;;;;5081860;28;20584;-66
2023/10/16 08:21:42;;;;;;;3.55;0.95;;;;;;;;;;5079591;28;20150;-70
2023/10/16 08:24:08;;;;;;;5.78;2.38;;;;;;;;;;5071578;28;20025;-66
2023/10/16 08:26:42;;;;;;;4.40;1.52;;;;;;;;;;5077556;28;20032;-66
2023/10/16 08:29:11;;;;;;;3.50;1.35;;;;;;;;;;5070990;28;20039;-66
2023/10/16 08:31:43;;;;;;;0.55;0.52;;;;;;;;;;5075495;28;20093;-66
2023/10/16 08:34:10;;;;;;;2.05;0.63;;;;;;;;;;5073418;28;20043;-65
2023/10/16 08:36:36;;;;;;;0.20;0.20;;;;;;;;;;5088182;28;20085;-65
2023/10/16 08:39:36;;;;;;;0.90;0.73;;;;;;;;;;5078995;28;20483;-68
2023/10/16 08:42:11;;;;;;;3.20;1.13;;;;;;;;;;5070078;28;20131;-66
2023/10/16 08:44:38;;;;;;;0.35;0.22;;;;;;;;;;5069877;28;20062;-67
2023/10/16 08:49:32;;;;;;;6.45;1.08;;;;;;;;;;5069979;28;20044;-66
2023/10/16 08:52:08;;;;;;;5.75;2.13;;;;;;;;;;5070804;28;20032;-65
2023/10/16 08:57:16;;;;;;;3.72;0.63;;;;;;;;;;5069762;28;20070;-66
2023/10/16 08:59:43;;;;;;;7.68;2.35;;;;;;;;;;5085799;28;20044;-66
2023/10/16 09:02:11;;;;;;;1.42;0.88;;;;;;;;;;5090393;28;20067;-70
2023/10/16 09:04:38;;;;;;;2.47;0.90;;;;;;;;;;5091560;28;20036;-66
2023/10/16 09:07:04;;;;;;;1.40;0.75;;;;;;;;;;5091708;28;20494;-66
2023/10/16 09:09:31;;;;;;;0.30;0.30;;;;;;;;;;5090689;28;20115;-67
2023/10/16 09:12:10;;;;;;;7.53;1.40;;;;;;;;;;5070300;28;20479;-72
2023/10/16 09:14:37;;;;;;;0.20;0.20;;;;;;;;;;5050252;28;20062;-69
2023/10/16 09:17:06;;;;;;;1.20;0.80;;;;;;;;;;5053107;28;20269;-71
2023/10/16 09:19:35;;;;;;;7.15;0.88;;;;;;;;;;5052878;28;20040;-67
2023/10/16 09:22:04;;;;;;;2.38;1.05;;;;;;;;;;5070894;28;20488;-66
2023/10/16 09:24:31;;;;;;;5.18;1.08;;;;;;;;;;5068363;28;20444;-67
2023/10/16 09:26:57;;;;;;;4.60;1.48;;;;;;;;;;5057021;28;20443;-66
2023/10/16 09:29:23;;;;;;;4.60;2.03;;;;;;;;;;5090505;28;20051;-66
2023/10/16 09:31:49;;;;;;;2.45;1.00;;;;;;;;;;5090848;28;20039;-70
2023/10/16 09:34:25;;;;;;;1.38;0.65;;;;;;;;;;5055986;28;20050;-71
2023/10/16 09:39:36;;;;;;;0.20;0.20;;;;;;;;;;5075043;28;20043;-68
2023/10/16 09:42:11;;;;;;;1.40;1.23;;;;;;;;;;5071489;28;20056;-68
2023/10/16 09:44:41;;;;;;;1.52;0.60;;;;;;;;;;5086126;28;20081;-67
2023/10/16 09:47:27;;;;;;;;;;;;;;;;;;5064676;28;20085;-66
2023/10/16 09:49:59;;;;;;;1.95;1.65;;;;;;;;;;5070121;28;19923;-66
2023/10/16 09:52:25;;;;;;;5.53;0.80;;;;;;;;;;5071827;28;20051;-66
2023/10/16 09:54:51;;;;;;;8.05;1.52;;;;;;;;;;5076066;28;20407;-67
2023/10/16 09:57:18;;;;;;;0.20;0.20;;;;;;;;;;5084464;28;20034;-67
2023/10/16 09:59:44;;;;;;;4.28;1.13;;;;;;;;;;5089285;28;20031;-71
2023/10/16 10:02:19;;;;;;;1.55;0.75;;;;;;;;;;5090289;28;20032;-65
2023/10/16 10:04:59;;;;;;;3.70;1.27;;;;;;;;;;5090434;28;20040;-65
2023/10/16 10:07:34;;;;;;;2.35;1.23;;;;;;;;;;5055254;28;20058;-66
2023/10/16 10:10:39;;;;;;;2.05;0.70;;;;;;;;;;5055673;28;20087;-66
2023/10/16 10:12:49;;;;;;;0.22;0.20;;;;;;;;;;5074548;28;20037;-68
2023/10/16 10:15:15;;;;;;;;;;;;;;;;;;5050051;28;20037;-67
2023/10/16 10:17:42;;;;;;;0.20;0.20;;;;;;;;;;5067953;28;19920;-66
2023/10/16 10:20:09;;;;;;;0.20;0.20;;;;;;;;;;5067709;28;20029;-66
2023/10/16 10:22:36;;;;;;;3.30;1.27;;;;;;;;;;5033066;28;20028;-67
2023/10/16 10:28:09;;;;;;;6.13;1.58;;;;;;;;;;5060586;28;20072;-69
2023/10/16 10:30:43;;;;;;;3.23;0.87;;;;;;;;;;5061978;28;20074;-64
2023/10/16 10:33:10;;;;;;;0.55;0.43;;;;;;;;;;5082437;28;20024;-67
2023/10/16 10:35:39;;;;;;;2.10;1.00;;;;;;;;;;5074704;28;20036;-65
2023/10/16 10:38:17;;;;;;;1.20;0.68;;;;;;;;;;5079309;28;20024;-66
2023/10/16 10:41:08;;;;;;;2.33;0.90;;;;;;;;;;5041557;28;20032;-65
2023/10/16 10:43:46;;;;;;;1.60;0.40;;;;;;;;;;5069640;28;20025;-66
2023/10/16 10:46:12;;;;;;;1.85;0.95;;;;;;;;;;5069549;28;20123;-66
2023/10/16 10:48:39;;;;;;;4.68;1.63;;;;;;;;;;5051165;28;20074;-66
2023/10/16 10:51:05;;;;;;;5.90;1.35;;;;;;;;;;5078283;28;20044;-66
2023/10/16 10:53:33;;;;;;;1.90;0.82;;;;;;;;;;5089526;28;20575;-65
2023/10/16 10:55:58;;;;;;;0.40;0.40;;;;;;;;;;5089549;28;20510;-67
2023/10/16 10:58:31;;;;;;;0.98;0.63;;;;;;;;;;5089343;28;20048;-69
2023/10/16 11:03:45;;;;;;;3.47;1.05;;;;;;;;;;5089457;28;20040;-65
2023/10/16 11:06:15;;;;;;;1.80;1.33;;;;;;;;;;5089863;28;20040;-65
2023/10/16 11:08:41;;;;;;;7.70;1.13;;;;;;;;;;5089359;28;20514;-67
2023/10/16 11:11:10;;;;;;;6.32;1.65;;;;;;;;;;5071211;28;20395;-67
2023/10/16 11:13:46;;;;;;;1.85;1.08;;;;;;;;;;5070772;28;20547;-67
2023/10/16 11:16:11;;;;;;;1.90;0.88;;;;;;;;;;5070385;28;20137;-66
2023/10/16 11:18:37;;;;;;;2.05;0.85;;;;;;;;;;5089095;28;20032;-67
2023/10/16 11:21:04;;;;;;;2.47;0.90;;;;;;;;;;5071208;28;20032;-70
2023/10/16 11:23:31;;;;;;;2.05;0.93;;;;;;;;;;5054482;28;20051;-66
2023/10/16 11:25:58;;;;;;;0.82;0.82;;;;;;;;;;5058653;28;20086;-69
2023/10/16 11:28:32;;;;;;;1.67;0.60;;;;;;;;;;5068767;28;20035;-67
2023/10/16 11:31:00;;;;;;;3.33;1.30;;;;;;;;;;5066217;28;20040;-68
2023/10/16 11:34:00;;;;;;;1.08;0.73;;;;;;;;;;5052217;28;20032;-68
2023/10/16 11:36:27;;;;;;;3.50;1.33;;;;;;;;;;5070319;28;20063;-68
2023/10/16 11:39:01;;;;;;;1.08;0.65;;;;;;;;;;5070783;28;20459;-67
2023/10/16 11:41:28;;;;;;;1.00;0.68;;;;;;;;;;5070012;28;20036;-66
2023/10/16 11:43:54;;;;;;;0.43;0.43;;;;;;;;;;5070886;28;20058;-66
2023/10/16 11:46:31;;;;;;;1.98;1.02;;;;;;;;;;5088217;28;20059;-68
2023/10/16 11:48:57;;;;;;;1.33;0.57;;;;;;;;;;5088092;28;20036;-67
2023/10/16 11:51:25;;;;;;;0.30;0.30;;;;;;;;;;5087380;28;20036;-67
2023/10/16 11:53:56;;;;;;;2.40;1.10;;;;;;;;;;5088372;28;20062;-67
2023/10/16 11:56:22;;;;;;;0.20;0.20;;;;;;;;;;5053807;28;20075;-68
2023/10/16 11:58:48;;;;;;;0.75;0.52;;;;;;;;;;5088155;28;20405;-67
2023/10/16 12:01:14;;;;;;;0.77;0.40;;;;;;;;;;5070037;28;20472;-66
2023/10/16 12:03:40;;;;;;;3.72;1.20;;;;;;;;;;5087143;28;20372;-67
2023/10/16 12:06:09;;;;;;;4.07;0.75;;;;;;;;;;5088070;28;20028;-68
2023/10/16 12:08:36;;;;;;;2.50;0.93;;;;;;;;;;5068502;28;20032;-67
2023/10/16 12:11:03;;;;;;;0.55;0.55;;;;;;;;;;5052192;28;20043;-67
2023/10/16 12:13:28;;;;;;;1.85;0.63;;;;;;;;;;5053478;28;20039;-69
2023/10/16 12:15:54;;;;;;;2.55;0.82;;;;;;;;;;5088594;28;20032;-68
2023/10/16 12:18:21;;;;;;;0.82;0.57;;;;;;;;;;5088367;28;20036;-68
2023/10/16 12:20:46;;;;;;;0.43;0.40;;;;;;;;;;5051738;28;20036;-68
2023/10/16 12:23:12;;;;;;;1.83;0.77;;;;;;;;;;5053301;28;20051;-67
2023/10/16 12:25:39;;;;;;;4.40;1.15;;;;;;;;;;5088419;28;20028;-67
2023/10/16 12:28:08;;;;;;;0.30;0.30;;;;;;;;;;5069795;28;20056;-65
2023/10/16 12:30:36;;;;;;;;;;;;;;;;;;5053140;28;20115;-64
2023/10/16 12:33:05;;;;;;;1.15;0.60;;;;;;;;;;5088179;28;19919;-66
2023/10/16 12:35:34;;;;;;;0.80;0.47;;;;;;;;;;5070216;28;20051;-66
2023/10/16 12:38:05;;;;;;;0.57;0.57;;;;;;;;;;5088365;28;20016;-67
2023/10/16 12:40:49;;;;;;;1.60;1.02;;;;;;;;;;5081834;28;20036;-66
2023/10/16 12:43:15;;;;;;;0.10;0.10;;;;;;;;;;5056124;28;20032;-66
2023/10/16 12:45:41;;;;;;;0.20;0.20;;;;;;;;;;5076484;28;20068;-65
2023/10/16 12:48:07;;;;;;;0.30;0.30;;;;;;;;;;5049867;28;20075;-65
2023/10/16 12:50:33;;;;;;;0.63;0.63;;;;;;;;;;5059379;28;20577;-67
2023/10/16 12:53:00;;;;;;;1.08;0.68;;;;;;;;;;5068760;28;20136;-66
2023/10/16 12:55:26;;;;;;;2.97;1.05;;;;;;;;;;5058161;28;20040;-72
2023/10/16 12:57:52;;;;;;;0.35;0.30;;;;;;;;;;5073310;28;20037;-66
2023/10/16 13:00:19;;;;;;;1.98;0.57;;;;;;;;;;5066393;28;20027;-67
2023/10/16 13:02:45;;;;;;;2.55;1.00;;;;;;;;;;5056102;28;20039;-66
2023/10/16 13:05:15;;;;;;;1.73;0.90;;;;;;;;;;5055835;28;20144;-67
2023/10/16 13:07:41;;;;;;;0.98;0.52;;;;;;;;;;5072347;28;20036;-66
2023/10/16 13:10:14;;;;;;;0.65;0.35;;;;;;;;;;5054727;28;20545;-67
2023/10/16 13:12:43;;;;;;;2.85;1.63;;;;;;;;;;5070810;28;20047;-66
2023/10/16 13:15:09;;;;;;;1.30;0.65;;;;;;;;;;5071016;28;20126;-67
2023/10/16 13:17:36;;;;;;;0.10;0.10;;;;;;;;;;5070809;28;20047;-66
2023/10/16 13:20:04;;;;;;;4.15;1.02;;;;;;;;;;5089344;28;20054;-68
2023/10/16 13:22:31;;;;;;;0.20;0.20;;;;;;;;;;5054214;28;20089;-71
2023/10/16 13:24:57;;;;;;;0.20;0.20;;;;;;;;;;5089488;28;20165;-66
2023/10/16 13:27:22;;;;;;;0.57;0.40;;;;;;;;;;5070762;28;20130;-68
2023/10/16 13:29:48;;;;;;;0.57;0.47;;;;;;;;;;5089292;28;20099;-66
2023/10/16 13:32:14;;;;;;;1.10;0.73;;;;;;;;;;5090510;28;20024;-66
2023/10/16 13:34:39;;;;;;;0.90;0.35;;;;;;;;;;5090455;28;20036;-66
2023/10/16 13:37:08;;;;;;;2.25;0.88;;;;;;;;;;5090788;28;20134;-66
2023/10/16 13:39:38;;;;;;;4.88;0.75;;;;;;;;;;5072702;28;20047;-66
2023/10/16 13:42:08;;;;;;;0.52;0.38;;;;;;;;;;5070147;28;20028;-67
2023/10/16 13:44:35;;;;;;;3.30;0.70;;;;;;;;;;5061823;28;20035;-67
2023/10/16 13:47:05;;;;;;;0.28;0.13;;;;;;;;;;5052361;28;20033;-67
2023/10/16 13:49:30;;;;;;;;;;;;;;;;;;5060540;28;20026;-65
2023/10/16 13:51:56;;;;;;;0.63;0.63;;;;;;;;;;5082411;28;19915;-66
2023/10/16 13:54:21;;;;;;;5.22;1.60;;;;;;;;;;5069446;28;20047;-65
2023/10/16 13:56:47;;;;;;;1.30;0.40;;;;;;;;;;5086669;28;20058;-65
2023/10/16 13:59:13;;;;;;;1.00;0.45;;;;;;;;;;5080975;28;20064;-66
2023/10/16 14:01:39;;;;;;;1.88;0.80;;;;;;;;;;5065178;28;20029;-65
2023/10/16 14:04:13;;;;;;;0.25;0.25;;;;;;;;;;5049623;28;20036;-66
2023/10/16 14:06:52;;;;;;;2.90;0.38;;;;;;;;;;5046153;28;20077;-66
2023/10/16 14:09:27;;;;;;;1.45;0.75;;;;;;;;;;5045615;28;20028;-65
2023/10/16 14:11:53;;;;;;;0.77;0.52;;;;;;;;;;5064600;28;20527;-66
2023/10/16 14:14:20;;;;;;;1.10;1.00;;;;;;;;;;5051772;28;20552;-66
2023/10/16 14:16:46;;;;;;;1.08;0.52;;;;;;;;;;5046250;28;20028;-66
2023/10/16 14:19:13;;;;;;;2.50;0.73;;;;;;;;;;5088696;28;20043;-69
2023/10/16 14:21:41;;;;;;;0.20;0.20;;;;;;;;;;5051301;28;20032;-73
2023/10/16 14:24:07;;;;;;;4.03;0.88;;;;;;;;;;5062404;28;20753;-66
2023/10/16 14:26:34;;;;;;;0.85;0.75;;;;;;;;;;5064326;28;20146;-66
2023/10/16 14:29:00;;;;;;;8.32;1.25;;;;;;;;;;5084616;28;20396;-66
2023/10/16 14:31:28;;;;;;;1.45;0.63;;;;;;;;;;5081470;28;20032;-65
2023/10/16 14:33:53;;;;;;;4.00;1.17;;;;;;;;;;5047095;28;20501;-65
2023/10/16 14:36:24;;;;;;;0.95;0.85;;;;;;;;;;5065364;28;20064;-70
2023/10/16 14:38:50;;;;;;;0.20;0.20;;;;;;;;;;5049061;28;20047;-66
2023/10/16 14:41:17;;;;;;;1.00;0.63;;;;;;;;;;5088128;28;20102;-65
2023/10/16 14:43:45;;;;;;;3.20;1.10;;;;;;;;;;5089753;28;20036;-65
2023/10/16 14:46:11;;;;;;;5.40;1.15;;;;;;;;;;5089304;28;20376;-65
2023/10/16 14:48:37;;;;;;;0.28;0.25;;;;;;;;;;5047803;28;20123;-65
2023/10/16 14:51:04;;;;;;;0.20;0.20;;;;;;;;;;5075388;28;20163;-71
2023/10/16 14:53:30;;;;;;;0.35;0.30;;;;;;;;;;5054591;28;20086;-66
2023/10/16 14:55:56;;;;;;;1.77;0.30;;;;;;;;;;5088024;28;20479;-67
2023/10/16 14:58:23;;;;;;;5.68;1.42;;;;;;;;;;5086323;28;20407;-67
2023/10/16 15:00:56;;;;;;;0.10;0.10;;;;;;;;;;5068403;28;20036;-68
2023/10/16 15:03:22;;;;;;;1.45;0.73;;;;;;;;;;5050787;28;20523;-66
2023/10/16 15:05:49;;;;;;;0.20;0.20;;;;;;;;;;5068481;28;20136;-65
2023/10/16 15:08:15;;;;;;;0.88;0.60;;;;;;;;;;5086781;28;20474;-67
2023/10/16 15:10:45;;;;;;;0.10;0.10;;;;;;;;;;5051614;28;20134;-67
2023/10/16 15:13:14;;;;;;;2.45;0.73;;;;;;;;;;5068972;28;20101;-66
2023/10/16 15:15:44;;;;;;;1.65;0.60;;;;;;;;;;5069613;28;20039;-66
2023/10/16 15:18:11;;;;;;;1.27;0.55;;;;;;;;;;5054407;28;20403;-71
2023/10/16 15:20:38;;;;;;;0.93;0.60;;;;;;;;;;5054160;28;20971;-65
2023/10/16 15:23:11;;;;;;;0.98;0.47;;;;;;;;;;5054077;28;20032;-66
2023/10/16 15:25:37;;;;;;;0.85;0.68;;;;;;;;;;5070880;28;20066;-65
2023/10/16 15:28:03;;;;;;;0.80;0.50;;;;;;;;;;5086211;28;20502;-66
2023/10/16 15:30:30;;;;;;;0.28;0.28;;;;;;;;;;5053940;28;20082;-66
2023/10/16 15:32:58;;;;;;;0.20;0.20;;;;;;;;;;5054309;28;20036;-67
2023/10/16 15:35:23;;;;;;;4.72;0.80;;;;;;;;;;5070620;28;20077;-67
2023/10/16 15:37:49;;;;;;;2.95;0.60;;;;;;;;;;5088833;28;20024;-67
2023/10/16 15:40:17;;;;;;;0.10;0.10;;;;;;;;;;5088756;28;20119;-67
2023/10/16 15:42:44;;;;;;;0.10;0.10;;;;;;;;;;5053644;28;20101;-65
2023/10/16 15:45:11;;;;;;;0.40;0.40;;;;;;;;;;5054028;28;20488;-67
2023/10/16 15:47:36;;;;;;;0.20;0.20;;;;;;;;;;5070776;28;20036;-66
2023/10/16 15:50:02;;;;;;;0.82;0.45;;;;;;;;;;5088815;28;20024;-67
2023/10/16 15:52:28;;;;;;;1.30;0.75;;;;;;;;;;5088410;28;20040;-65
2023/10/16 15:54:53;;;;;;;0.80;0.50;;;;;;;;;;5088798;28;20054;-65
2023/10/16 15:57:22;;;;;;;2.75;1.65;;;;;;;;;;5070365;28;20146;-67
2023/10/16 15:59:49;;;;;;;2.17;1.13;;;;;;;;;;5053974;28;20382;-66
2023/10/16 16:02:16;;;;;;;3.13;0.65;;;;;;;;;;5050544;28;20155;-72
2023/10/16 16:04:44;;;;;;;0.52;0.32;;;;;;;;;;5069788;28;20036;-67
2023/10/16 16:07:10;;;;;;;1.85;0.47;;;;;;;;;;5053042;28;20126;-66
2023/10/16 16:09:35;;;;;;;1.70;0.43;;;;;;;;;;5070385;28;20143;-67
2023/10/16 16:12:02;;;;;;;0.35;0.35;;;;;;;;;;5053258;28;20040;-66
2023/10/16 16:14:27;;;;;;;1.50;1.33;;;;;;;;;;5069528;28;20040;-70
2023/10/16 16:16:53;;;;;;;0.52;0.50;;;;;;;;;;5088496;28;20051;-65
2023/10/16 16:19:22;;;;;;;0.90;0.40;;;;;;;;;;5088408;28;20024;-66
2023/10/16 16:21:49;;;;;;;1.45;1.35;;;;;;;;;;5053362;28;20123;-68
2023/10/16 16:24:15;;;;;;;0.28;0.28;;;;;;;;;;5053523;28;20434;-66
2023/10/16 16:26:41;;;;;;;0.98;0.60;;;;;;;;;;5088031;28;20226;-66
2023/10/16 16:29:08;;;;;;;0.73;0.65;;;;;;;;;;5088432;28;20052;-66
2023/10/16 16:31:34;;;;;;;0.50;0.35;;;;;;;;;;5070030;28;20060;-65
2023/10/16 16:34:00;;;;;;;0.95;0.60;;;;;;;;;;5071424;28;20074;-67
2023/10/16 16:36:27;;;;;;;2.75;1.13;;;;;;;;;;5091712;28;20119;-66